Time;durP1;ratioP1;P1;durP2;ratioP2;P2;SDS_P1;SDS_P2;PMS_P1;PMS_P2;Temp;Humidity;BMP_temperature;BMP_pressure;BME280_temperature;BME280_humidity;BME280_pressure;Samples;Min_cycle;Max_cycle;Signal;HPM_P1;HPM_P2
2022/08/11 00:00:57;;;;;;;13.90;9.00;;;;;;;;;;740291;187;635960;-60
2022/08/11 00:03:23;;;;;;;11.30;9.53;;;;;;;;;;744954;187;626993;-56
2022/08/11 00:05:50;;;;;;;11.47;8.83;;;;;;;;;;743508;187;627719;-62
2022/08/11 00:08:22;;;;;;;11.77;10.10;;;;;;;;;;741593;188;620061;-61
2022/08/11 00:10:54;;;;;;;10.97;9.50;;;;;;;;;;762535;183;642563;-57
2022/08/11 00:13:19;;;;;;;12.67;9.13;;;;;;;;;;749597;185;635301;-61
2022/08/11 00:15:45;;;;;;;15.17;9.60;;;;;;;;;;752236;185;618053;-57
2022/08/11 00:18:10;;;;;;;22.80;10.40;;;;;;;;;;753396;183;621131;-56
2022/08/11 00:20:38;;;;;;;9.90;8.57;;;;;;;;;;755139;184;627043;-57
2022/08/11 00:23:03;;;;;;;12.40;8.80;;;;;;;;;;768794;180;621777;-60
2022/08/11 00:25:28;;;;;;;9.37;8.43;;;;;;;;;;757829;183;627949;-61
2022/08/11 00:27:54;;;;;;;16.80;8.27;;;;;;;;;;752120;183;614767;-60
2022/08/11 00:30:20;;;;;;;11.17;9.77;;;;;;;;;;767932;183;619615;-57
2022/08/11 00:32:45;;;;;;;10.93;8.60;;;;;;;;;;753383;183;627460;-57
2022/08/11 00:35:11;;;;;;;10.87;9.40;;;;;;;;;;761795;180;629581;-62
2022/08/11 00:37:37;;;;;;;16.40;9.57;;;;;;;;;;773760;179;624345;-61
2022/08/11 00:40:03;;;;;;;11.10;9.20;;;;;;;;;;758679;181;626100;-60
2022/08/11 00:42:32;;;;;;;9.37;8.23;;;;;;;;;;751569;185;627134;-60
2022/08/11 00:45:09;;;;;;;9.93;8.93;;;;;;;;;;755103;185;655475;-57
2022/08/11 00:47:38;;;;;;;9.53;8.10;;;;;;;;;;775694;183;631164;-60
2022/08/11 00:50:06;;;;;;;13.37;8.40;;;;;;;;;;757907;184;636027;-57
2022/08/11 00:52:32;;;;;;;10.30;9.17;;;;;;;;;;754395;183;623761;-57
2022/08/11 00:55:00;;;;;;;13.80;8.90;;;;;;;;;;757697;183;626571;-57
2022/08/11 00:57:44;;;;;;;12.80;8.30;;;;;;;;;;758637;183;613275;-61
2022/08/11 01:00:12;;;;;;;9.03;8.00;;;;;;;;;;759268;185;618155;-56
2022/08/11 01:02:41;;;;;;;12.47;8.53;;;;;;;;;;766216;183;636336;-57
2022/08/11 01:05:14;;;;;;;9.87;8.87;;;;;;;;;;757260;183;628704;-61
2022/08/11 01:07:43;;;;;;;12.47;9.23;;;;;;;;;;757125;183;626037;-56
2022/08/11 01:10:13;;;;;;;10.83;7.80;;;;;;;;;;754491;186;628015;-56
2022/08/11 01:12:43;;;;;;;12.50;8.90;;;;;;;;;;752827;186;632791;-60
2022/08/11 01:15:12;;;;;;;10.00;8.60;;;;;;;;;;759539;183;620098;-57
2022/08/11 01:17:45;;;;;;;10.20;9.10;;;;;;;;;;753512;183;623949;-61
2022/08/11 01:20:29;;;;;;;15.00;8.93;;;;;;;;;;766636;182;626124;-57
2022/08/11 01:22:56;;;;;;;10.70;8.60;;;;;;;;;;753766;183;635738;-61
2022/08/11 01:25:27;;;;;;;10.53;7.13;;;;;;;;;;759483;185;616920;-57
2022/08/11 01:27:53;;;;;;;10.03;7.70;;;;;;;;;;754683;184;634809;-56
2022/08/11 01:30:21;;;;;;;10.27;7.70;;;;;;;;;;759319;184;624198;-57
2022/08/11 01:32:48;;;;;;;10.07;8.07;;;;;;;;;;753713;183;632616;-61
2022/08/11 01:35:20;;;;;;;10.27;8.50;;;;;;;;;;759556;183;632368;-62
2022/08/11 01:37:52;;;;;;;12.17;8.40;;;;;;;;;;755228;183;627069;-63
2022/08/11 01:40:24;;;;;;;9.93;8.17;;;;;;;;;;759208;183;619222;-61
2022/08/11 01:45:38;;;;;;;11.50;8.40;;;;;;;;;;756346;183;623139;-63
2022/08/11 01:48:04;;;;;;;11.60;9.07;;;;;;;;;;754441;185;628344;-61
2022/08/11 01:50:40;;;;;;;10.17;8.07;;;;;;;;;;758733;183;626512;-56
2022/08/11 01:53:09;;;;;;;12.13;8.60;;;;;;;;;;752934;185;620841;-61
2022/08/11 01:55:36;;;;;;;14.63;9.13;;;;;;;;;;753492;185;634012;-62
2022/08/11 01:58:08;;;;;;;12.67;8.90;;;;;;;;;;752271;185;631914;-62
2022/08/11 02:00:34;;;;;;;13.67;8.77;;;;;;;;;;757929;184;617269;-62
2022/08/11 02:03:01;;;;;;;9.90;8.60;;;;;;;;;;753029;186;627683;-63
2022/08/11 02:05:44;;;;;;;8.83;7.13;;;;;;;;;;754416;184;625335;-62
2022/08/11 02:08:24;;;;;;;11.17;8.50;;;;;;;;;;754985;183;624599;-57
2022/08/11 02:13:31;;;;;;;9.00;7.70;;;;;;;;;;753451;184;617577;-63
2022/08/11 02:16:03;;;;;;;8.13;7.07;;;;;;;;;;757463;185;616882;-61
2022/08/11 02:23:50;;;;;;;10.43;8.43;;;;;;;;;;767124;177;626284;-57
2022/08/11 02:26:18;;;;;;;10.93;8.20;;;;;;;;;;757134;183;633300;-58
2022/08/11 02:28:49;;;;;;;13.20;8.00;;;;;;;;;;754834;183;620292;-60
2022/08/11 02:33:47;;;;;;;10.03;8.43;;;;;;;;;;763907;186;617261;-61
2022/08/11 02:36:18;;;;;;;10.30;8.70;;;;;;;;;;760226;184;618779;-56
2022/08/11 02:38:44;;;;;;;18.33;9.27;;;;;;;;;;756395;185;616928;-61
2022/08/11 02:42:21;;;;;;;10.20;8.50;;;;;;;;;;760026;183;635770;-61
2022/08/11 02:43:38;;;;;;;9.00;7.50;;;;;;;;;;739291;187;632507;-57
2022/08/11 02:46:11;;;;;;;9.00;7.57;;;;;;;;;;754047;183;619195;-57
2022/08/11 02:51:13;;;;;;;15.00;8.70;;;;;;;;;;754019;183;627184;-61
2022/08/11 02:53:38;;;;;;;12.13;8.40;;;;;;;;;;759701;183;627086;-57
2022/08/11 02:56:07;;;;;;;17.67;9.97;;;;;;;;;;759129;183;632005;-57
2022/08/11 02:58:37;;;;;;;10.40;8.87;;;;;;;;;;755659;183;623404;-61
2022/08/11 03:01:05;;;;;;;11.53;9.23;;;;;;;;;;760064;183;617211;-62
2022/08/11 03:03:32;;;;;;;13.27;9.47;;;;;;;;;;767626;183;617150;-57
2022/08/11 03:06:04;;;;;;;12.10;9.43;;;;;;;;;;758987;183;629162;-63
2022/08/11 03:08:30;;;;;;;14.50;10.67;;;;;;;;;;749352;186;617486;-64
2022/08/11 03:18:37;;;;;;;11.63;9.57;;;;;;;;;;758589;183;629125;-57
2022/08/11 03:21:06;;;;;;;10.57;8.63;;;;;;;;;;761069;183;628145;-57
2022/08/11 03:23:36;;;;;;;10.10;8.20;;;;;;;;;;760806;183;623772;-57
2022/08/11 03:26:18;;;;;;;16.63;11.40;;;;;;;;;;755394;185;637130;-60
2022/08/11 03:28:44;;;;;;;15.83;13.00;;;;;;;;;;765196;183;623815;-57
2022/08/11 03:31:26;;;;;;;14.10;12.27;;;;;;;;;;760176;179;640880;-64
2022/08/11 03:36:45;;;;;;;14.77;11.63;;;;;;;;;;755464;183;620713;-57
2022/08/11 03:39:08;;;;;;;17.50;12.97;;;;;;;;;;752345;184;640917;-57
2022/08/11 03:44:13;;;;;;;19.83;12.70;;;;;;;;;;759522;187;638146;-57
2022/08/11 03:46:43;;;;;;;14.37;12.03;;;;;;;;;;760507;184;619004;-63
2022/08/11 03:49:07;;;;;;;13.10;10.17;;;;;;;;;;757100;185;626311;-62
2022/08/11 03:51:35;;;;;;;16.43;12.00;;;;;;;;;;755745;183;619119;-62
2022/08/11 03:54:03;;;;;;;14.77;11.43;;;;;;;;;;757789;183;616991;-62
2022/08/11 03:56:31;;;;;;;16.27;11.90;;;;;;;;;;751960;184;626231;-57
2022/08/11 03:59:03;;;;;;;18.73;11.90;;;;;;;;;;753286;183;626585;-61
2022/08/11 04:01:33;;;;;;;14.10;11.93;;;;;;;;;;753323;186;631855;-62
2022/08/11 04:03:59;;;;;;;12.70;10.47;;;;;;;;;;759823;183;617738;-57
2022/08/11 04:06:27;;;;;;;20.33;13.67;;;;;;;;;;764865;183;624325;-63
2022/08/11 04:08:58;;;;;;;17.53;12.40;;;;;;;;;;755747;183;628222;-61
2022/08/11 04:11:42;;;;;;;17.83;13.07;;;;;;;;;;767369;180;625189;-61
2022/08/11 04:16:43;;;;;;;18.60;13.87;;;;;;;;;;755510;185;626940;-57
2022/08/11 04:19:09;;;;;;;21.30;15.60;;;;;;;;;;751900;187;624909;-56
2022/08/11 04:21:49;;;;;;;21.90;14.67;;;;;;;;;;761396;183;633034;-57
2022/08/11 04:24:18;;;;;;;16.37;14.50;;;;;;;;;;753298;183;633593;-61
2022/08/11 04:26:47;;;;;;;19.40;14.20;;;;;;;;;;764187;180;634386;-57
2022/08/11 04:29:19;;;;;;;21.03;17.40;;;;;;;;;;761001;183;630146;-61
2022/08/11 04:31:44;;;;;;;24.90;15.37;;;;;;;;;;758501;183;632036;-56
2022/08/11 04:34:16;;;;;;;21.97;15.87;;;;;;;;;;748161;184;638852;-57
2022/08/11 04:39:40;;;;;;;21.60;16.23;;;;;;;;;;765588;183;619742;-57
2022/08/11 04:44:41;;;;;;;26.63;19.33;;;;;;;;;;758710;184;612782;-57
2022/08/11 04:47:07;;;;;;;26.87;18.27;;;;;;;;;;751444;186;627981;-57
2022/08/11 05:02:39;;;;;;;40.60;28.03;;;;;;;;;;750086;186;619116;-57
2022/08/11 05:07:48;;;;;;;29.70;22.00;;;;;;;;;;759432;183;630106;-57
2022/08/11 05:10:18;;;;;;;27.90;21.47;;;;;;;;;;751239;184;652201;-58
2022/08/11 05:12:45;;;;;;;24.53;18.10;;;;;;;;;;753641;184;624816;-61
2022/08/11 05:35:38;;;;;;;16.47;11.13;;;;;;;;;;759467;183;629831;-57
2022/08/11 05:58:16;;;;;;;11.60;9.37;;;;;;;;;;757187;183;638393;-58
2022/08/11 06:00:42;;;;;;;12.53;10.03;;;;;;;;;;753542;183;623527;-58
2022/08/11 06:03:09;;;;;;;13.27;8.43;;;;;;;;;;748923;185;637686;-62
2022/08/11 06:05:34;;;;;;;11.93;9.40;;;;;;;;;;747259;184;630307;-58
2022/08/11 06:08:00;;;;;;;18.27;8.70;;;;;;;;;;741988;186;646841;-56
2022/08/11 06:10:25;;;;;;;8.67;7.47;;;;;;;;;;770295;180;630221;-62
2022/08/11 06:12:52;;;;;;;12.07;8.07;;;;;;;;;;755744;183;630820;-62
2022/08/11 06:15:18;;;;;;;12.97;7.57;;;;;;;;;;754674;185;624890;-58
2022/08/11 06:17:45;;;;;;;10.93;7.07;;;;;;;;;;753421;183;628553;-62
2022/08/11 06:20:11;;;;;;;15.83;7.43;;;;;;;;;;757516;183;634723;-58
2022/08/11 06:22:36;;;;;;;9.07;7.10;;;;;;;;;;752674;184;622854;-59
2022/08/11 06:25:02;;;;;;;10.23;7.03;;;;;;;;;;754873;183;623535;-58
2022/08/11 06:27:28;;;;;;;8.93;6.83;;;;;;;;;;753336;185;620955;-58
2022/08/11 06:29:54;;;;;;;17.80;7.57;;;;;;;;;;759527;183;630014;-62
2022/08/11 06:32:20;;;;;;;9.93;6.60;;;;;;;;;;757896;183;633548;-62
2022/08/11 06:34:48;;;;;;;9.27;6.70;;;;;;;;;;754936;184;619614;-58
2022/08/11 06:37:16;;;;;;;8.10;6.00;;;;;;;;;;755085;186;632120;-62
2022/08/11 06:39:50;;;;;;;11.47;6.90;;;;;;;;;;752180;183;622945;-62
2022/08/11 06:42:21;;;;;;;8.97;6.57;;;;;;;;;;753228;182;630356;-59
2022/08/11 06:44:49;;;;;;;8.83;6.00;;;;;;;;;;760993;183;625632;-62
2022/08/11 06:47:16;;;;;;;9.30;6.80;;;;;;;;;;754099;183;628134;-62
2022/08/11 06:52:15;;;;;;;11.43;6.17;;;;;;;;;;763919;177;622104;-58
2022/08/11 06:54:40;;;;;;;12.70;6.20;;;;;;;;;;760013;183;626810;-57
2022/08/11 07:02:11;;;;;;;11.50;5.87;;;;;;;;;;756673;183;614539;-60
2022/08/11 07:04:40;;;;;;;10.23;6.87;;;;;;;;;;763427;183;619191;-61
2022/08/11 07:17:48;;;;;;;10.53;6.03;;;;;;;;;;755893;183;624103;-57
2022/08/11 07:30:17;;;;;;;11.03;6.37;;;;;;;;;;765470;183;623867;-57
2022/08/11 07:32:45;;;;;;;13.00;5.47;;;;;;;;;;759076;184;629993;-62
2022/08/11 07:35:12;;;;;;;19.27;6.77;;;;;;;;;;756445;183;624891;-58
2022/08/11 07:37:38;;;;;;;8.37;5.00;;;;;;;;;;754632;185;626817;-57
2022/08/11 07:40:04;;;;;;;7.30;5.00;;;;;;;;;;753200;184;626203;-57
2022/08/11 07:42:30;;;;;;;8.07;5.60;;;;;;;;;;755109;183;629438;-61
2022/08/11 07:52:31;;;;;;;8.50;4.57;;;;;;;;;;757183;183;627842;-57
2022/08/11 07:54:56;;;;;;;11.13;6.27;;;;;;;;;;755369;183;630397;-61
2022/08/11 08:20:09;;;;;;;8.23;3.80;;;;;;;;;;754692;183;644733;-59
2022/08/11 08:22:32;;;;;;;7.20;4.30;;;;;;;;;;760919;185;632416;-58
2022/08/11 08:24:58;;;;;;;10.10;5.10;;;;;;;;;;758553;183;619582;-58
2022/08/11 08:27:24;;;;;;;10.00;4.43;;;;;;;;;;757161;183;635682;-59
2022/08/11 08:32:22;;;;;;;8.87;3.90;;;;;;;;;;755600;183;633217;-66
2022/08/11 08:34:49;;;;;;;7.70;4.43;;;;;;;;;;764906;183;634374;-62
2022/08/11 08:37:18;;;;;;;11.10;4.73;;;;;;;;;;756961;183;636725;-62
2022/08/11 08:39:45;;;;;;;8.57;5.10;;;;;;;;;;757869;183;616721;-63
2022/08/11 08:42:11;;;;;;;9.57;4.77;;;;;;;;;;757707;183;630347;-61
2022/08/11 08:44:36;;;;;;;6.87;4.00;;;;;;;;;;752625;183;630112;-57
2022/08/11 08:47:02;;;;;;;15.83;5.63;;;;;;;;;;760806;183;634221;-64
2022/08/11 08:49:28;;;;;;;12.43;6.47;;;;;;;;;;760785;183;624502;-58
2022/08/11 08:51:54;;;;;;;5.60;4.30;;;;;;;;;;757632;183;630033;-57
2022/08/11 08:54:21;;;;;;;12.53;4.60;;;;;;;;;;761395;183;624657;-58
2022/08/11 08:56:47;;;;;;;15.50;4.03;;;;;;;;;;745272;185;622340;-58
2022/08/11 08:59:12;;;;;;;9.30;4.93;;;;;;;;;;751672;185;618546;-58
2022/08/11 09:01:41;;;;;;;6.03;3.97;;;;;;;;;;754216;183;623722;-57
2022/08/11 09:04:07;;;;;;;8.13;4.60;;;;;;;;;;759723;183;618934;-61
2022/08/11 09:06:33;;;;;;;8.37;4.30;;;;;;;;;;757355;183;626095;-63
2022/08/11 09:08:59;;;;;;;7.10;4.57;;;;;;;;;;758842;183;636114;-62
2022/08/11 09:12:04;;;;;;;5.90;3.30;;;;;;;;;;763116;183;620947;-58
2022/08/11 09:14:11;;;;;;;7.90;4.20;;;;;;;;;;751180;186;618898;-57
2022/08/11 09:16:38;;;;;;;7.37;5.00;;;;;;;;;;767585;181;627645;-58
2022/08/11 09:19:03;;;;;;;6.27;4.43;;;;;;;;;;756355;184;622008;-58
2022/08/11 09:21:31;;;;;;;7.80;4.83;;;;;;;;;;755618;183;625620;-63
2022/08/11 09:28:58;;;;;;;8.87;4.30;;;;;;;;;;754895;185;625835;-64
2022/08/11 09:31:25;;;;;;;4.90;3.30;;;;;;;;;;756773;183;643976;-58
2022/08/11 09:33:50;;;;;;;11.50;4.73;;;;;;;;;;763116;183;624359;-58
2022/08/11 09:41:19;;;;;;;8.50;3.93;;;;;;;;;;746720;187;637941;-57
2022/08/11 09:46:16;;;;;;;7.50;3.43;;;;;;;;;;748347;186;631344;-58
2022/08/11 09:48:43;;;;;;;8.07;4.70;;;;;;;;;;745061;187;620044;-57
2022/08/11 09:51:09;;;;;;;6.10;3.50;;;;;;;;;;745928;187;624480;-59
2022/08/11 09:53:35;;;;;;;10.20;3.60;;;;;;;;;;754797;184;617084;-57
2022/08/11 09:58:12;;;;;;;8.87;4.50;;;;;;;;;;750962;184;617222;-57
2022/08/11 09:58:27;;;;;;;10.50;4.50;;;;;;;;;;752138;184;631168;-57
2022/08/11 10:00:52;;;;;;;10.03;4.40;;;;;;;;;;760394;185;623155;-62
2022/08/11 10:03:18;;;;;;;15.13;4.47;;;;;;;;;;755752;184;628245;-62
2022/08/11 10:08:15;;;;;;;10.20;4.03;;;;;;;;;;755674;183;620826;-58
2022/08/11 10:10:41;;;;;;;9.73;4.17;;;;;;;;;;757506;185;624026;-57
2022/08/11 10:13:08;;;;;;;6.37;4.40;;;;;;;;;;752735;185;641195;-62
2022/08/11 10:15:34;;;;;;;10.30;4.70;;;;;;;;;;753394;183;623488;-57
2022/08/11 10:20:31;;;;;;;5.87;3.67;;;;;;;;;;753556;184;620140;-62
2022/08/11 10:28:00;;;;;;;9.80;3.73;;;;;;;;;;761347;183;621070;-57
2022/08/11 10:35:29;;;;;;;8.13;3.00;;;;;;;;;;762154;183;636711;-57
2022/08/11 10:37:55;;;;;;;4.97;2.70;;;;;;;;;;755351;185;636657;-61
2022/08/11 10:40:22;;;;;;;7.07;3.10;;;;;;;;;;754000;183;633578;-59
2022/08/11 10:47:53;;;;;;;7.00;3.60;;;;;;;;;;756834;183;631039;-61
2022/08/11 11:00:25;;;;;;;11.30;5.20;;;;;;;;;;760120;183;618987;-56
2022/08/11 11:02:51;;;;;;;10.40;3.93;;;;;;;;;;755347;183;618047;-61
2022/08/11 11:05:17;;;;;;;4.40;2.70;;;;;;;;;;755966;183;627958;-61
2022/08/11 11:07:49;;;;;;;4.43;3.37;;;;;;;;;;753916;184;627123;-58
2022/08/11 11:10:15;;;;;;;10.10;3.43;;;;;;;;;;751893;184;632320;-61
2022/08/11 11:20:16;;;;;;;5.77;2.97;;;;;;;;;;759702;183;613147;-58
2022/08/11 11:22:46;;;;;;;12.73;4.07;;;;;;;;;;757839;183;632248;-57
2022/08/11 11:25:15;;;;;;;6.93;3.00;;;;;;;;;;761771;183;617002;-57
2022/08/11 11:27:43;;;;;;;5.60;3.50;;;;;;;;;;760439;183;617025;-63
2022/08/11 11:30:09;;;;;;;5.73;2.90;;;;;;;;;;757262;183;629198;-64
2022/08/11 11:32:39;;;;;;;7.50;3.47;;;;;;;;;;754559;182;630433;-58
2022/08/11 11:35:08;;;;;;;6.63;3.00;;;;;;;;;;752806;183;627176;-62
2022/08/11 11:37:35;;;;;;;7.67;3.33;;;;;;;;;;754620;183;630080;-58
2022/08/11 11:40:01;;;;;;;4.90;3.40;;;;;;;;;;761755;183;623042;-58
2022/08/11 11:42:27;;;;;;;5.83;3.60;;;;;;;;;;757779;183;624419;-58
2022/08/11 11:44:52;;;;;;;9.77;2.47;;;;;;;;;;759051;183;614743;-58
2022/08/11 11:47:18;;;;;;;6.27;3.00;;;;;;;;;;758955;183;619795;-57
2022/08/11 11:49:44;;;;;;;9.40;3.27;;;;;;;;;;755450;183;630275;-62
2022/08/11 11:52:17;;;;;;;4.93;2.30;;;;;;;;;;756624;184;626971;-58
2022/08/11 11:54:41;;;;;;;8.87;3.23;;;;;;;;;;759560;183;625633;-57
2022/08/11 12:02:10;;;;;;;3.87;2.47;;;;;;;;;;755962;182;619086;-58
2022/08/11 12:04:37;;;;;;;3.70;2.27;;;;;;;;;;756451;183;627876;-62
2022/08/11 12:09:34;;;;;;;6.57;2.87;;;;;;;;;;756589;183;633515;-63
2022/08/11 12:14:32;;;;;;;4.80;2.90;;;;;;;;;;757418;183;636725;-62
2022/08/11 12:16:58;;;;;;;6.00;2.83;;;;;;;;;;757879;185;638817;-59
2022/08/11 12:19:24;;;;;;;7.60;3.30;;;;;;;;;;753970;183;630267;-60
2022/08/11 12:27:19;;;;;;;4.20;2.67;;;;;;;;;;759817;183;624506;-63
2022/08/11 12:29:45;;;;;;;5.03;2.90;;;;;;;;;;755497;184;631392;-62
2022/08/11 12:32:11;;;;;;;6.40;3.13;;;;;;;;;;760286;183;625179;-61
2022/08/11 12:34:37;;;;;;;4.80;2.50;;;;;;;;;;754363;184;627122;-62
2022/08/11 12:37:09;;;;;;;5.23;2.90;;;;;;;;;;755988;183;964397;-58
2022/08/11 12:47:08;;;;;;;8.77;3.10;;;;;;;;;;752551;183;637246;-56
2022/08/11 12:52:07;;;;;;;6.17;3.40;;;;;;;;;;745175;187;626125;-56
2022/08/11 12:54:50;;;;;;;7.57;3.70;;;;;;;;;;754598;184;608965;-64
2022/08/11 13:04:58;;;;;;;9.47;3.30;;;;;;;;;;761769;183;623938;-56
2022/08/11 13:07:20;;;;;;;5.33;3.13;;;;;;;;;;752074;185;625179;-62
2022/08/11 13:09:46;;;;;;;6.87;3.50;;;;;;;;;;763984;183;630888;-56
2022/08/11 13:14:43;;;;;;;8.90;4.10;;;;;;;;;;757548;184;635890;-62
2022/08/11 13:19:41;;;;;;;5.20;3.60;;;;;;;;;;757461;183;616197;-62
2022/08/11 13:22:07;;;;;;;4.73;3.30;;;;;;;;;;755963;183;615015;-57
2022/08/11 13:24:33;;;;;;;6.00;3.87;;;;;;;;;;760862;183;629863;-56
2022/08/11 13:26:59;;;;;;;7.77;3.07;;;;;;;;;;757775;183;635110;-57
2022/08/11 13:29:25;;;;;;;7.90;4.93;;;;;;;;;;756871;183;628564;-61
2022/08/11 13:31:51;;;;;;;5.83;3.57;;;;;;;;;;758777;183;618427;-57
2022/08/11 13:34:17;;;;;;;5.90;3.73;;;;;;;;;;759066;183;629877;-57
2022/08/11 13:36:42;;;;;;;7.93;3.30;;;;;;;;;;757115;183;628379;-56
2022/08/11 13:39:08;;;;;;;6.90;3.17;;;;;;;;;;758672;183;629495;-57
2022/08/11 13:41:38;;;;;;;4.60;3.00;;;;;;;;;;772686;180;633057;-62
2022/08/11 13:44:03;;;;;;;5.70;3.50;;;;;;;;;;756860;183;634545;-56
2022/08/11 13:46:29;;;;;;;6.17;3.27;;;;;;;;;;754380;183;628950;-56
2022/08/11 13:48:55;;;;;;;5.83;2.70;;;;;;;;;;759955;183;634673;-62
2022/08/11 13:51:32;;;;;;;4.40;2.90;;;;;;;;;;754968;183;630639;-60
2022/08/11 13:54:00;;;;;;;10.53;3.27;;;;;;;;;;773761;178;619206;-60
2022/08/11 13:56:26;;;;;;;4.37;2.37;;;;;;;;;;755935;183;630853;-56
2022/08/11 13:58:51;;;;;;;9.23;2.63;;;;;;;;;;760575;185;617215;-60
2022/08/11 14:01:17;;;;;;;5.80;2.10;;;;;;;;;;759029;183;641815;-57
2022/08/11 14:03:43;;;;;;;4.83;2.97;;;;;;;;;;759811;183;684819;-57
2022/08/11 14:06:09;;;;;;;3.83;2.45;;;;;;;;;;771254;179;620963;-61
2022/08/11 14:08:35;;;;;;;5.70;2.60;;;;;;;;;;755242;181;616805;-63
2022/08/11 14:13:37;;;;;;;5.10;2.90;;;;;;;;;;756103;183;622172;-57
2022/08/11 14:16:03;;;;;;;9.37;2.73;;;;;;;;;;761537;183;624611;-57
2022/08/11 14:18:29;;;;;;;4.80;2.27;;;;;;;;;;760834;183;614604;-57
2022/08/11 14:23:26;;;;;;;4.57;2.07;;;;;;;;;;756890;183;628905;-56
2022/08/11 14:28:24;;;;;;;6.03;2.63;;;;;;;;;;756289;183;624722;-62
2022/08/11 14:30:55;;;;;;;7.10;3.50;;;;;;;;;;754155;183;633668;-57
2022/08/11 14:33:20;;;;;;;8.10;3.10;;;;;;;;;;754009;183;689635;-57
2022/08/11 14:35:46;;;;;;;9.50;2.90;;;;;;;;;;758800;183;626589;-62
2022/08/11 14:38:12;;;;;;;3.57;2.40;;;;;;;;;;758062;183;646427;-58
2022/08/11 14:48:13;;;;;;;3.97;2.80;;;;;;;;;;754236;183;627175;-61
2022/08/11 14:50:38;;;;;;;8.20;3.20;;;;;;;;;;751289;184;620347;-61
2022/08/11 14:53:04;;;;;;;6.30;2.77;;;;;;;;;;753461;183;634573;-61
2022/08/11 14:58:16;;;;;;;5.23;2.70;;;;;;;;;;745539;187;622090;-63
2022/08/11 15:00:41;;;;;;;5.00;2.73;;;;;;;;;;755043;183;630808;-59
2022/08/11 15:03:09;;;;;;;5.07;3.00;;;;;;;;;;754314;183;630059;-58
2022/08/11 15:05:35;;;;;;;4.50;2.07;;;;;;;;;;757759;183;606428;-61
2022/08/11 15:08:01;;;;;;;4.33;2.67;;;;;;;;;;753186;185;631848;-58
2022/08/11 15:10:26;;;;;;;5.23;2.40;;;;;;;;;;755074;185;629699;-57
2022/08/11 15:12:52;;;;;;;2.97;2.10;;;;;;;;;;754799;183;629130;-62
2022/08/11 15:17:51;;;;;;;5.80;2.80;;;;;;;;;;759685;182;627988;-64
2022/08/11 15:25:20;;;;;;;7.33;2.50;;;;;;;;;;735149;190;619952;-63
2022/08/11 15:37:52;;;;;;;6.37;2.77;;;;;;;;;;758045;183;625049;-63
2022/08/11 15:48:04;;;;;;;3.93;2.30;;;;;;;;;;754334;184;642092;-57
2022/08/11 15:50:30;;;;;;;3.50;2.27;;;;;;;;;;757107;183;665491;-62
2022/08/11 15:52:56;;;;;;;3.33;2.17;;;;;;;;;;755290;183;638040;-63
2022/08/11 15:55:22;;;;;;;3.87;2.23;;;;;;;;;;753349;184;640125;-57
2022/08/11 16:05:27;;;;;;;3.73;2.30;;;;;;;;;;753467;183;617215;-65
2022/08/11 16:07:53;;;;;;;4.50;2.30;;;;;;;;;;756282;184;625511;-59
2022/08/11 16:10:20;;;;;;;6.43;2.50;;;;;;;;;;761747;182;617410;-58
2022/08/11 16:17:49;;;;;;;12.23;6.80;;;;;;;;;;754874;184;627482;-59
2022/08/11 16:20:15;;;;;;;60.03;47.97;;;;;;;;;;759235;183;629044;-66
2022/08/11 16:22:42;;;;;;;14.40;12.80;;;;;;;;;;754362;183;624707;-58
2022/08/11 16:25:08;;;;;;;5.10;4.07;;;;;;;;;;752323;185;623795;-59
2022/08/11 16:27:34;;;;;;;7.80;2.30;;;;;;;;;;760141;185;618934;-59
2022/08/11 16:30:00;;;;;;;8.13;3.03;;;;;;;;;;755879;183;627098;-58
2022/08/11 16:32:26;;;;;;;4.63;2.40;;;;;;;;;;754447;183;625962;-58
2022/08/11 16:39:57;;;;;;;7.33;2.40;;;;;;;;;;757102;183;683482;-64
2022/08/11 16:47:26;;;;;;;11.43;2.97;;;;;;;;;;758188;183;617467;-66
2022/08/11 16:49:52;;;;;;;11.30;2.47;;;;;;;;;;767483;180;632974;-59
2022/08/11 16:52:18;;;;;;;15.37;2.57;;;;;;;;;;760932;183;628786;-58
2022/08/11 16:54:46;;;;;;;8.63;2.10;;;;;;;;;;756991;183;628998;-59
2022/08/11 16:59:44;;;;;;;5.50;2.20;;;;;;;;;;754532;183;630029;-63
2022/08/11 17:02:11;;;;;;;10.20;2.67;;;;;;;;;;749653;187;626382;-58
2022/08/11 17:14:43;;;;;;;5.17;1.70;;;;;;;;;;755599;183;616257;-58
2022/08/11 17:17:11;;;;;;;5.60;2.37;;;;;;;;;;759796;183;625614;-58
2022/08/11 17:19:37;;;;;;;3.80;2.00;;;;;;;;;;757831;183;618423;-59
2022/08/11 17:24:35;;;;;;;3.77;1.87;;;;;;;;;;757621;183;629265;-58
2022/08/11 17:27:01;;;;;;;5.33;2.53;;;;;;;;;;759087;183;626150;-58
2022/08/11 17:29:30;;;;;;;3.50;2.13;;;;;;;;;;753968;183;620787;-58
2022/08/11 17:36:59;;;;;;;3.83;2.40;;;;;;;;;;764988;181;618013;-59
2022/08/11 17:39:27;;;;;;;6.00;2.10;;;;;;;;;;756490;185;619731;-62
2022/08/11 17:49:25;;;;;;;7.33;2.30;;;;;;;;;;757672;182;626346;-58
2022/08/11 18:03:27;;;;;;;10.50;4.00;;;;;;;;;;759246;183;633672;-58
2022/08/11 18:04:23;;;;;;;4.67;3.20;;;;;;;;;;753874;183;615313;-66
2022/08/11 18:06:49;;;;;;;6.40;2.73;;;;;;;;;;765740;182;623478;-64
